createdAt,value
2019-02-20T00:00:08.939Z,101036.63
2019-02-20T00:02:37.497Z,101034.53
2019-02-20T00:05:06.117Z,101031.62
2019-02-20T00:07:34.649Z,101034.52
2019-02-20T00:10:03.312Z,101026.24
2019-02-20T00:12:31.959Z,101026.77
2019-02-20T00:15:00.454Z,101030.53
2019-02-20T00:17:28.934Z,101036.92
2019-02-20T00:19:57.454Z,101033.33
2019-02-20T00:22:25.951Z,101038.94
2019-02-20T00:24:54.402Z,101035.75
2019-02-20T00:27:23.062Z,101037.92
2019-02-20T00:29:51.693Z,101042.03
2019-02-20T00:32:20.192Z,101047.45
2019-02-20T00:34:48.705Z,101052.53
2019-02-20T00:37:17.239Z,101057.44
2019-02-20T00:39:45.723Z,101048.20
2019-02-20T00:42:14.343Z,101055.70
2019-02-20T00:44:44.466Z,101049.48
2019-02-20T00:47:32.887Z,101056.66
2019-02-20T00:50:01.381Z,101056.39
2019-02-20T00:52:50.624Z,101058.64
2019-02-20T00:55:19.294Z,101061.84
2019-02-20T00:57:47.831Z,101066.37
2019-02-20T01:00:16.727Z,101058.00
2019-02-20T01:02:45.364Z,101050.05
2019-02-20T01:05:13.967Z,101054.43
2019-02-20T01:07:42.483Z,101048.11
2019-02-20T01:10:11.099Z,101053.59
2019-02-20T01:12:41.290Z,101059.17
2019-02-20T01:15:11.323Z,101060.17
2019-02-20T01:17:39.984Z,101055.13
2019-02-20T01:20:10.480Z,101054.44
2019-02-20T01:22:38.949Z,101051.49
2019-02-20T01:25:07.646Z,101057.43
2019-02-20T01:27:36.138Z,101055.55
2019-02-20T01:30:07.475Z,101059.48
2019-02-20T01:32:36.007Z,101054.94
2019-02-20T01:35:04.997Z,101062.91
2019-02-20T01:37:33.481Z,101062.05
2019-02-20T01:40:02.014Z,101059.39
2019-02-20T01:42:30.458Z,101055.95
2019-02-20T01:44:58.959Z,101057.75
2019-02-20T01:47:27.424Z,101054.23
2019-02-20T01:49:55.929Z,101050.24
2019-02-20T01:52:24.469Z,101049.72
2019-02-20T01:54:53.025Z,101052.38
2019-02-20T01:57:21.509Z,101048.31
2019-02-20T01:59:50.436Z,101050.35
2019-02-20T02:02:18.890Z,101055.89
2019-02-20T02:04:47.477Z,101051.30
2019-02-20T02:07:15.964Z,101049.73
2019-02-20T02:09:44.478Z,101041.05
2019-02-20T02:12:12.968Z,101034.20
2019-02-20T02:14:41.442Z,101035.29
2019-02-20T02:17:09.996Z,101038.11
2019-02-20T02:19:38.558Z,101040.52
2019-02-20T02:22:07.216Z,101043.42
2019-02-20T02:24:35.881Z,101038.82
2019-02-20T02:27:04.608Z,101037.09
2019-02-20T02:29:33.068Z,101042.34
2019-02-20T02:32:01.683Z,101043.02
2019-02-20T02:34:30.139Z,101035.86
2019-02-20T02:36:58.692Z,101036.53
2019-02-20T02:39:27.180Z,101036.84
2019-02-20T02:41:55.662Z,101032.80
2019-02-20T02:44:24.259Z,101034.13
2019-02-20T02:46:52.742Z,101037.70
2019-02-20T02:49:21.333Z,101045.12
2019-02-20T02:51:49.836Z,101038.88
2019-02-20T02:54:18.389Z,101048.59
2019-02-20T02:56:46.924Z,101046.86
2019-02-20T02:59:15.476Z,101042.77
2019-02-20T03:01:43.964Z,101038.78
2019-02-20T03:04:12.444Z,101030.91
2019-02-20T03:06:40.918Z,101033.56
2019-02-20T03:09:10.351Z,101035.66
2019-02-20T03:11:38.810Z,101032.85
2019-02-20T03:14:07.386Z,101036.28
2019-02-20T03:16:35.912Z,101027.37
2019-02-20T03:19:04.454Z,101035.29
2019-02-20T03:21:32.931Z,101026.36
2019-02-20T03:24:01.829Z,101035.59
2019-02-20T03:26:30.445Z,101036.92
2019-02-20T03:28:59.095Z,101035.97
2019-02-20T03:31:27.859Z,101038.62
2019-02-20T03:33:56.320Z,101039.19
2019-02-20T03:36:24.805Z,101047.25
2019-02-20T03:38:53.258Z,101046.45
2019-02-20T03:41:21.759Z,101044.81
2019-02-20T03:43:50.213Z,101048.03
2019-02-20T03:46:18.673Z,101041.54
2019-02-20T03:48:47.178Z,101043.02
2019-02-20T03:51:15.637Z,101041.08
2019-02-20T03:53:51.670Z,101046.14
2019-02-20T03:56:14.635Z,101044.45
2019-02-20T03:58:43.154Z,101045.84
2019-02-20T04:01:11.639Z,101046.80
2019-02-20T04:03:40.177Z,101043.17
2019-02-20T04:06:08.661Z,101044.91
2019-02-20T04:08:37.280Z,101045.78
2019-02-20T04:11:05.766Z,101054.83
2019-02-20T04:13:34.410Z,101053.81
2019-02-20T04:16:02.932Z,101056.77
2019-02-20T04:18:31.415Z,101058.41
2019-02-20T04:20:59.976Z,101058.26
2019-02-20T04:23:28.466Z,101058.72
2019-02-20T04:25:56.918Z,101059.12
2019-02-20T04:28:25.402Z,101054.27
2019-02-20T04:30:53.879Z,101058.26
2019-02-20T04:33:22.436Z,101060.92
2019-02-20T04:35:50.892Z,101060.92
2019-02-20T04:38:19.384Z,101052.58
2019-02-20T04:40:47.908Z,101061.31
2019-02-20T04:43:16.387Z,101060.86
2019-02-20T04:45:44.930Z,101061.22
2019-02-20T04:48:13.460Z,101057.64
2019-02-20T04:50:42.301Z,101059.83
2019-02-20T04:53:10.747Z,101054.89
2019-02-20T04:55:39.332Z,101051.70
2019-02-20T04:58:15.983Z,101045.06
2019-02-20T05:00:44.586Z,101046.39
2019-02-20T05:03:13.149Z,101045.12
2019-02-20T05:05:41.862Z,101044.75
2019-02-20T05:08:10.452Z,101043.11
2019-02-20T05:10:39.001Z,101053.41
2019-02-20T05:13:07.735Z,101053.09
2019-02-20T05:15:36.262Z,101047.32
2019-02-20T05:18:04.786Z,101051.00
2019-02-20T05:20:34.095Z,101047.01
2019-02-20T05:23:02.547Z,101046.61
2019-02-20T05:25:31.009Z,101043.64
2019-02-20T05:27:59.529Z,101050.84
2019-02-20T05:30:28.006Z,101049.20
2019-02-20T05:32:56.755Z,101053.75
2019-02-20T05:35:25.248Z,101049.91
2019-02-20T05:37:53.781Z,101052.72
2019-02-20T05:40:22.523Z,101058.59
2019-02-20T05:42:51.240Z,101060.84
2019-02-20T05:45:19.887Z,101060.63
2019-02-20T05:47:48.388Z,101055.92
2019-02-20T05:50:16.838Z,101065.13
2019-02-20T05:52:45.318Z,101062.30
2019-02-20T05:55:13.830Z,101063.56
2019-02-20T05:57:42.344Z,101065.18
2019-02-20T06:00:12.922Z,101059.24
2019-02-20T06:02:44.424Z,101065.80
2019-02-20T06:05:13.048Z,101069.61
2019-02-20T06:07:44.487Z,101068.26
2019-02-20T06:10:13.082Z,101078.90
2019-02-20T06:12:41.627Z,101080.14
2019-02-20T06:15:10.590Z,101077.39
2019-02-20T06:17:39.144Z,101080.87
2019-02-20T06:20:11.909Z,101078.63
2019-02-20T06:22:40.328Z,101086.08
2019-02-20T06:25:09.159Z,101077.75
2019-02-20T06:27:37.598Z,101079.08
2019-02-20T06:30:09.362Z,101076.05
2019-02-20T06:32:37.834Z,101080.91
2019-02-20T06:35:07.209Z,101077.66
2019-02-20T06:37:35.738Z,101082.17
2019-02-20T06:40:07.332Z,101091.40
2019-02-20T06:42:35.889Z,101097.86
2019-02-20T06:45:07.317Z,101097.81
2019-02-20T06:47:35.961Z,101095.95
2019-02-20T06:50:06.157Z,101093.95
2019-02-20T06:52:34.697Z,101095.92
2019-02-20T06:55:03.447Z,101096.07
2019-02-20T06:57:31.867Z,101096.91
2019-02-20T07:00:00.475Z,101104.92
2019-02-20T07:02:29.336Z,101111.98
2019-02-20T07:05:26.381Z,101114.09
2019-02-20T07:08:14.676Z,101109.06
2019-02-20T07:10:54.962Z,101108.36
2019-02-20T07:13:26.512Z,101109.48
2019-02-20T07:16:16.354Z,101111.57
2019-02-20T07:18:53.919Z,101108.70
2019-02-20T07:21:27.881Z,101114.21
2019-02-20T07:24:14.608Z,101117.20
2019-02-20T07:26:47.104Z,101116.56
2019-02-20T07:29:43.902Z,101117.38
2019-02-20T07:32:17.833Z,101122.16
2019-02-20T07:34:46.288Z,101132.70
2019-02-20T07:37:14.828Z,101135.36
2019-02-20T07:39:43.367Z,101140.27
2019-02-20T07:42:12.064Z,101136.38
2019-02-20T07:44:40.571Z,101140.02
2019-02-20T07:47:09.195Z,101145.42
2019-02-20T07:49:37.640Z,101141.16
2019-02-20T07:52:06.204Z,101142.70
2019-02-20T07:54:34.774Z,101160.45
2019-02-20T07:57:03.359Z,101158.02
2019-02-20T07:59:31.880Z,101161.30
2019-02-20T08:02:00.607Z,101162.84
2019-02-20T08:04:29.246Z,101161.75
2019-02-20T08:06:57.700Z,101168.85
2019-02-20T08:09:26.183Z,101168.06
2019-02-20T08:11:54.760Z,101174.20
2019-02-20T08:14:23.273Z,101180.50
2019-02-20T08:16:52.868Z,101185.93
2019-02-20T08:19:22.056Z,101193.84
2019-02-20T08:21:50.733Z,101193.84
2019-02-20T08:24:19.219Z,101191.45
2019-02-20T08:26:47.803Z,101198.66
2019-02-20T08:29:16.652Z,101194.14
2019-02-20T08:31:45.198Z,101200.50
2019-02-20T08:34:14.021Z,101199.47
2019-02-20T08:36:42.509Z,101199.80
2019-02-20T08:39:11.221Z,101200.55
2019-02-20T08:41:39.740Z,101203.33
2019-02-20T08:44:08.503Z,101202.69
2019-02-20T08:46:37.135Z,101202.39
2019-02-20T08:49:05.758Z,101210.22
2019-02-20T08:51:34.242Z,101200.22
2019-02-20T08:54:04.417Z,101202.20
2019-02-20T08:56:33.003Z,101204.23
2019-02-20T08:59:01.773Z,101206.89
2019-02-20T09:04:58.681Z,101209.67
2019-02-20T09:07:27.255Z,101215.69
2019-02-20T09:09:55.792Z,101219.25
2019-02-20T09:12:24.255Z,101219.73
2019-02-20T09:14:52.831Z,101219.73
2019-02-20T09:17:21.662Z,101217.42
2019-02-20T09:19:50.557Z,101217.45
2019-02-20T09:22:19.091Z,101213.88
2019-02-20T09:24:47.812Z,101207.92
2019-02-20T09:27:16.272Z,101206.14
2019-02-20T09:29:44.750Z,101209.05
2019-02-20T09:32:13.308Z,101213.31
2019-02-20T09:34:41.752Z,101206.22
2019-02-20T09:37:10.284Z,101217.67
2019-02-20T09:39:39.146Z,101218.27
2019-02-20T09:42:08.169Z,101211.52
2019-02-20T09:44:42.763Z,101213.73
2019-02-20T09:47:11.408Z,101217.54
2019-02-20T09:49:40.109Z,101217.39
2019-02-20T09:52:08.651Z,101217.87
2019-02-20T09:54:37.135Z,101226.92
2019-02-20T09:57:05.685Z,101223.34
2019-02-20T09:59:34.194Z,101222.48
2019-02-20T10:02:02.833Z,101224.89
2019-02-20T10:04:31.735Z,101223.11
2019-02-20T10:07:00.385Z,101227.73
2019-02-20T10:09:28.864Z,101228.59
2019-02-20T10:11:57.526Z,101222.91
2019-02-20T10:14:26.174Z,101227.61
2019-02-20T10:16:54.720Z,101225.71
2019-02-20T10:19:23.306Z,101228.73
2019-02-20T10:21:51.806Z,101228.30
2019-02-20T10:24:20.445Z,101231.87
2019-02-20T10:26:48.916Z,101233.08
2019-02-20T10:29:17.414Z,101232.18
2019-02-20T10:31:45.948Z,101229.77
2019-02-20T10:34:14.723Z,101234.95
2019-02-20T10:36:43.252Z,101238.55
2019-02-20T10:39:11.786Z,101244.18
2019-02-20T10:41:40.522Z,101244.97
2019-02-20T10:44:09.002Z,101249.77
2019-02-20T10:46:37.474Z,101250.67
2019-02-20T10:49:06.266Z,101254.83
2019-02-20T10:51:34.877Z,101252.70
2019-02-20T10:54:03.334Z,101251.22
2019-02-20T10:56:32.012Z,101240.84
2019-02-20T10:59:00.732Z,101253.02
2019-02-20T11:01:29.282Z,101253.33
2019-02-20T11:03:57.855Z,101251.80
2019-02-20T11:06:26.388Z,101246.75
2019-02-20T11:08:54.917Z,101249.08
2019-02-20T11:11:23.693Z,101255.50
2019-02-20T11:13:52.204Z,101250.03
2019-02-20T11:16:20.680Z,101251.13
2019-02-20T11:18:49.435Z,101245.14
2019-02-20T11:21:17.999Z,101248.72
2019-02-20T11:23:46.458Z,101253.84
2019-02-20T11:26:18.196Z,101251.73
2019-02-20T11:28:45.268Z,101253.25
2019-02-20T11:31:13.923Z,101252.56
2019-02-20T11:33:42.471Z,101253.06
2019-02-20T11:36:10.950Z,101244.64
2019-02-20T11:38:39.406Z,101251.47
2019-02-20T11:41:07.900Z,101248.13
2019-02-20T11:43:36.431Z,101251.75
2019-02-20T11:46:05.055Z,101250.07
2019-02-20T11:48:33.517Z,101253.84
2019-02-20T11:51:02.118Z,101252.12
2019-02-20T11:53:36.998Z,101244.58
2019-02-20T11:56:01.013Z,101250.13
2019-02-20T11:58:29.476Z,101254.70
2019-02-20T12:00:58.003Z,101250.80
2019-02-20T12:03:26.569Z,101245.58
2019-02-20T12:05:55.159Z,101242.12
2019-02-20T12:08:23.913Z,101246.53
2019-02-20T12:10:52.528Z,101244.58
2019-02-20T12:13:21.071Z,101243.23
2019-02-20T12:15:49.584Z,101249.20
2019-02-20T12:18:18.494Z,101246.87
2019-02-20T12:20:47.374Z,101246.78
2019-02-20T12:23:16.074Z,101240.14
2019-02-20T12:25:44.660Z,101241.19
2019-02-20T12:28:13.263Z,101244.29
2019-02-20T12:30:41.897Z,101238.28
2019-02-20T12:33:10.436Z,101246.42
2019-02-20T12:35:39.036Z,101241.61
2019-02-20T12:38:07.730Z,101245.19
2019-02-20T12:40:36.408Z,101247.27
2019-02-20T12:43:04.986Z,101238.14
2019-02-20T12:45:33.513Z,101241.59
2019-02-20T12:48:02.357Z,101240.86
2019-02-20T12:50:30.843Z,101239.94
2019-02-20T12:52:59.422Z,101236.16
2019-02-20T12:55:28.056Z,101239.23
2019-02-20T12:57:56.906Z,101236.53
2019-02-20T13:00:25.518Z,101236.39
2019-02-20T13:02:54.115Z,101234.08
2019-02-20T13:05:22.751Z,101233.58
2019-02-20T13:07:51.627Z,101225.67
2019-02-20T13:10:20.255Z,101223.01
2019-02-20T13:12:49.047Z,101229.61
2019-02-20T13:15:17.739Z,101223.63
2019-02-20T13:17:46.559Z,101219.94
2019-02-20T13:20:15.232Z,101224.59
2019-02-20T13:22:43.859Z,101217.88
2019-02-20T13:25:12.991Z,101219.70
2019-02-20T13:27:41.637Z,101216.28
2019-02-20T13:30:12.565Z,101222.27
2019-02-20T13:32:41.018Z,101221.03
2019-02-20T13:35:10.016Z,101217.98
2019-02-20T13:37:38.593Z,101215.38
2019-02-20T13:40:10.217Z,101219.64
2019-02-20T13:42:38.869Z,101220.87
2019-02-20T13:45:08.899Z,101223.79
2019-02-20T13:47:37.604Z,101224.87
2019-02-20T13:50:11.832Z,101220.44
2019-02-20T13:52:40.891Z,101223.23
2019-02-20T13:55:09.787Z,101231.48
2019-02-20T13:57:38.423Z,101221.87
2019-02-20T14:00:10.190Z,101222.95
2019-02-20T14:02:38.743Z,101219.92
2019-02-20T14:05:08.846Z,101223.34
2019-02-20T14:07:37.410Z,101223.30
2019-02-20T14:10:11.370Z,101215.17
2019-02-20T14:12:39.923Z,101214.20
2019-02-20T14:15:11.232Z,101228.15
2019-02-20T14:17:39.722Z,101210.05
2019-02-20T14:20:10.795Z,101212.72
2019-02-20T14:22:40.022Z,101217.20
2019-02-20T14:25:10.223Z,101205.35
2019-02-20T14:27:38.776Z,101206.06
2019-02-20T14:30:12.196Z,101211.76
2019-02-20T14:32:40.684Z,101207.00
2019-02-20T14:35:11.310Z,101207.23
2019-02-20T14:37:41.362Z,101205.02
2019-02-20T14:40:10.897Z,101213.10
2019-02-20T14:42:39.519Z,101213.77
2019-02-20T14:45:10.993Z,101216.70
2019-02-20T14:47:39.728Z,101212.30
2019-02-20T14:50:12.705Z,101214.02
2019-02-20T14:52:41.392Z,101215.36
2019-02-20T14:55:11.006Z,101213.54
2019-02-20T14:57:39.790Z,101213.10
2019-02-20T15:00:13.806Z,101208.92
2019-02-20T15:02:41.622Z,101215.09
2019-02-20T15:05:11.982Z,101221.02
2019-02-20T15:07:40.782Z,101223.45
2019-02-20T15:10:10.393Z,101214.72
2019-02-20T15:12:38.899Z,101220.45
2019-02-20T15:15:10.981Z,101215.17
2019-02-20T15:17:39.579Z,101225.48
2019-02-20T15:20:11.096Z,101223.50
2019-02-20T15:22:39.993Z,101221.55
2019-02-20T15:25:09.678Z,101221.38
2019-02-20T15:27:38.466Z,101218.56
2019-02-20T15:30:17.205Z,101225.70
2019-02-20T15:32:46.060Z,101230.64
2019-02-20T15:35:15.061Z,101228.12
2019-02-20T15:37:43.701Z,101229.55
2019-02-20T15:40:12.409Z,101235.34
2019-02-20T15:42:40.975Z,101231.27
2019-02-20T15:45:11.098Z,101231.61
2019-02-20T15:47:39.761Z,101235.92
2019-02-20T15:50:11.439Z,101231.38
2019-02-20T15:52:40.039Z,101229.03
2019-02-20T15:55:11.433Z,101227.63
2019-02-20T15:57:41.633Z,101226.63
2019-02-20T16:00:13.551Z,101228.38
2019-02-20T16:02:42.031Z,101224.78
2019-02-20T16:05:10.929Z,101226.50
2019-02-20T16:07:39.487Z,101221.67
2019-02-20T16:10:09.869Z,101227.36
2019-02-20T16:12:38.553Z,101229.11
2019-02-20T16:15:09.556Z,101234.88
2019-02-20T16:17:38.158Z,101231.27
2019-02-20T16:20:09.580Z,101233.87
2019-02-20T16:22:38.261Z,101236.95
2019-02-20T16:25:12.254Z,101236.53
2019-02-20T16:27:46.738Z,101246.77
2019-02-20T16:30:15.022Z,101247.00
2019-02-20T16:32:43.642Z,101254.95
2019-02-20T16:35:12.944Z,101254.95
2019-02-20T16:37:41.752Z,101252.52
2019-02-20T16:40:15.199Z,101260.73
2019-02-20T16:42:43.802Z,101256.52
2019-02-20T16:45:23.501Z,101261.70
2019-02-20T16:47:52.511Z,101262.27
2019-02-20T16:50:21.116Z,101262.56
2019-02-20T16:52:49.711Z,101258.86
2019-02-20T16:55:19.731Z,101265.34
2019-02-20T16:57:56.160Z,101267.74
2019-02-20T17:00:21.640Z,101269.38
2019-02-20T17:02:50.743Z,101271.46
2019-02-20T17:05:19.689Z,101272.23
2019-02-20T17:07:48.215Z,101276.63
2019-02-20T17:10:17.339Z,101280.64
2019-02-20T17:12:46.068Z,101282.35
2019-02-20T17:15:16.502Z,101286.27
2019-02-20T17:17:45.296Z,101290.97
2019-02-20T17:20:17.764Z,101294.18
2019-02-20T17:22:46.604Z,101292.48
2019-02-20T17:25:15.741Z,101291.33
2019-02-20T17:27:44.413Z,101291.98
2019-02-20T17:30:15.253Z,101297.98
2019-02-20T17:32:44.227Z,101299.14
2019-02-20T17:35:12.949Z,101301.45
2019-02-20T17:37:41.511Z,101301.45
2019-02-20T17:40:11.506Z,101312.71
2019-02-20T17:42:41.492Z,101312.71
2019-02-20T17:45:17.688Z,101317.30
2019-02-20T17:47:46.576Z,101313.47
2019-02-20T17:50:17.758Z,101313.36
2019-02-20T17:52:46.402Z,101320.30
2019-02-20T17:55:15.231Z,101322.86
2019-02-20T17:57:43.910Z,101323.30
2019-02-20T18:00:14.972Z,101325.78
2019-02-20T18:02:43.502Z,101325.78
2019-02-20T18:05:13.858Z,101331.13
2019-02-20T18:07:49.452Z,101318.56
2019-02-20T18:10:13.014Z,101326.40
2019-02-20T18:12:41.547Z,101330.12
2019-02-20T18:15:12.614Z,101342.06
2019-02-20T18:17:41.287Z,101339.58
2019-02-20T18:20:11.052Z,101335.45
2019-02-20T18:22:39.573Z,101343.50
2019-02-20T18:25:10.059Z,101342.58
2019-02-20T18:27:38.634Z,101345.30
2019-02-20T18:30:12.510Z,101341.48
2019-02-20T18:32:40.452Z,101345.28
2019-02-20T18:35:11.119Z,101343.81
2019-02-20T18:37:40.013Z,101338.21
2019-02-20T18:40:11.472Z,101340.50
2019-02-20T18:42:39.940Z,101338.66
2019-02-20T18:45:13.695Z,101341.86
2019-02-20T18:47:42.368Z,101341.25
2019-02-20T18:50:13.002Z,101341.41
2019-02-20T18:52:41.681Z,101337.77
2019-02-20T18:55:11.812Z,101338.09
2019-02-20T18:57:42.411Z,101339.19
2019-02-20T19:00:16.783Z,101336.98
2019-02-20T19:02:45.630Z,101339.13
2019-02-20T19:05:14.819Z,101337.95
2019-02-20T19:07:43.409Z,101338.36
2019-02-20T19:10:26.945Z,101338.37
2019-02-20T19:13:28.228Z,101343.30
2019-02-20T19:16:08.705Z,101344.57
2019-02-20T19:19:02.545Z,101340.27
2019-02-20T19:21:31.754Z,101347.16
2019-02-20T19:24:18.279Z,101348.14
2019-02-20T19:26:58.388Z,101348.14
2019-02-20T19:29:53.890Z,101350.44
2019-02-20T19:32:43.515Z,101350.23
2019-02-20T19:35:30.402Z,101354.44
2019-02-20T19:38:07.592Z,101356.33
2019-02-20T19:40:44.618Z,101360.83
2019-02-20T19:43:34.518Z,101353.82
2019-02-20T19:46:21.133Z,101352.85
2019-02-20T19:49:17.115Z,101349.28
2019-02-20T19:52:16.098Z,101356.60
2019-02-20T19:54:56.636Z,101358.16
2019-02-20T19:57:34.403Z,101360.86
2019-02-20T20:00:09.480Z,101358.16
2019-02-20T20:03:10.559Z,101359.39
2019-02-20T20:05:51.443Z,101352.30
2019-02-20T20:08:42.909Z,101354.87
2019-02-20T20:11:20.481Z,101350.37
2019-02-20T20:14:14.150Z,101350.28
2019-02-20T20:16:51.567Z,101357.25
2019-02-20T20:19:23.350Z,101354.13
2019-02-20T20:22:15.803Z,101354.68
2019-02-20T20:25:08.721Z,101350.37
2019-02-20T20:28:04.395Z,101348.53
2019-02-20T20:30:39.147Z,101352.00
2019-02-20T20:33:42.822Z,101349.74
2019-02-20T20:36:38.454Z,101342.05
2019-02-20T20:39:16.157Z,101340.61
2019-02-20T20:42:00.359Z,101342.33
2019-02-20T20:45:03.921Z,101355.19
2019-02-20T20:47:53.624Z,101355.19
2019-02-20T20:50:46.126Z,101350.88
2019-02-20T20:53:17.854Z,101357.06
2019-02-20T20:55:58.547Z,101355.06
2019-02-20T20:58:39.646Z,101354.88
2019-02-20T21:01:31.130Z,101359.98
2019-02-20T21:04:19.620Z,101361.72
2019-02-20T21:07:12.853Z,101360.52
2019-02-20T21:09:59.558Z,101358.59
2019-02-20T21:12:33.966Z,101353.67
2019-02-20T21:15:06.340Z,101356.73
2019-02-20T21:17:53.595Z,101349.20
2019-02-20T21:20:28.084Z,101353.52
2019-02-20T21:23:11.417Z,101356.97
2019-02-20T21:25:48.768Z,101353.77
2019-02-20T21:28:44.464Z,101354.55
2019-02-20T21:31:53.677Z,101357.12
2019-02-20T21:34:48.212Z,101356.56
2019-02-20T21:37:45.299Z,101358.66
2019-02-20T21:40:38.113Z,101363.22
2019-02-20T21:43:29.370Z,101358.19
2019-02-20T21:46:21.983Z,101364.33
2019-02-20T21:49:19.685Z,101364.88
2019-02-20T21:52:03.488Z,101368.72
2019-02-20T21:54:40.946Z,101370.80
2019-02-20T21:57:35.172Z,101377.61
2019-02-20T22:00:28.067Z,101367.78
2019-02-20T22:03:12.007Z,101367.06
2019-02-20T22:06:07.604Z,101372.06
2019-02-20T22:09:07.963Z,101367.20
2019-02-20T22:11:45.330Z,101372.27
2019-02-20T22:14:22.696Z,101380.72
2019-02-20T22:16:57.273Z,101376.31
2019-02-20T22:19:29.715Z,101377.10
2019-02-20T22:22:17.664Z,101376.63
2019-02-20T22:24:54.731Z,101375.46
2019-02-20T22:27:32.242Z,101377.59
2019-02-20T22:30:31.236Z,101371.97
2019-02-20T22:33:26.974Z,101368.70
2019-02-20T22:36:10.578Z,101373.47
2019-02-20T22:39:15.322Z,101376.59
2019-02-20T22:41:50.522Z,101377.91
2019-02-20T22:44:38.131Z,101379.96
2019-02-20T22:47:14.937Z,101375.61
2019-02-20T22:50:00.965Z,101378.98
2019-02-20T22:52:44.564Z,101375.70
2019-02-20T22:55:24.792Z,101379.13
2019-02-20T22:58:02.421Z,101387.38
2019-02-20T23:00:53.700Z,101386.34
2019-02-20T23:03:34.265Z,101391.58
2019-02-20T23:06:22.419Z,101390.95
2019-02-20T23:09:05.130Z,101393.06
2019-02-20T23:11:39.363Z,101389.92
2019-02-20T23:14:31.966Z,101388.66
2019-02-20T23:17:00.613Z,101389.52
2019-02-20T23:19:29.150Z,101387.82
2019-02-20T23:21:57.741Z,101384.75
2019-02-20T23:24:26.231Z,101389.69
2019-02-20T23:26:54.765Z,101396.84
2019-02-20T23:29:23.460Z,101397.47
2019-02-20T23:31:51.906Z,101393.23
2019-02-20T23:34:20.433Z,101398.05
2019-02-20T23:36:48.928Z,101405.09
2019-02-20T23:39:17.459Z,101403.79
2019-02-20T23:41:45.971Z,101404.56
2019-02-20T23:44:14.438Z,101409.74
2019-02-20T23:46:42.998Z,101419.52
2019-02-20T23:49:11.522Z,101418.68
2019-02-20T23:51:40.030Z,101418.67
2019-02-20T23:54:08.510Z,101414.42
2019-02-20T23:56:37.088Z,101419.89
2019-02-20T23:59:05.574Z,101424.03
